sensor_id;sensor_type;location;lat;lon;timestamp;pressure;altitude;pressure_sealevel;temperature;humidity
55301;BME280;58302;51.446;-2.000;2023-04-06T00:02:02;100622.09;;;8.31;100.00
55301;BME280;58302;51.446;-2.000;2023-04-06T00:04:28;100627.00;;;8.34;100.00
55301;BME280;58302;51.446;-2.000;2023-04-06T00:06:54;100617.84;;;8.35;100.00
55301;BME280;58302;51.446;-2.000;2023-04-06T00:09:20;100619.25;;;8.38;100.00
55301;BME280;58302;51.446;-2.000;2023-04-06T00:11:46;100606.28;;;8.40;100.00
55301;BME280;58302;51.446;-2.000;2023-04-06T00:14:12;100616.06;;;8.41;100.00
55301;BME280;58302;51.446;-2.000;2023-04-06T00:16:38;100616.06;;;8.41;100.00
55301;BME280;58302;51.446;-2.000;2023-04-06T00:19:03;100609.56;;;8.42;100.00
55301;BME280;58302;51.446;-2.000;2023-04-06T00:21:29;100612.28;;;8.42;100.00
55301;BME280;58302;51.446;-2.000;2023-04-06T00:23:56;100604.97;;;8.42;100.00
55301;BME280;58302;51.446;-2.000;2023-04-06T00:26:23;100607.44;;;8.44;100.00
55301;BME280;58302;51.446;-2.000;2023-04-06T00:28:49;100611.22;;;8.43;100.00
55301;BME280;58302;51.446;-2.000;2023-04-06T00:31:17;100612.03;;;8.43;100.00
55301;BME280;58302;51.446;-2.000;2023-04-06T00:33:43;100606.28;;;8.40;100.00
55301;BME280;58302;51.446;-2.000;2023-04-06T00:36:09;100599.56;;;8.42;100.00
55301;BME280;58302;51.446;-2.000;2023-04-06T00:38:35;100583.78;;;8.39;100.00
55301;BME280;58302;51.446;-2.000;2023-04-06T00:41:03;100581.16;;;8.44;100.00
55301;BME280;58302;51.446;-2.000;2023-04-06T00:43:29;100585.75;;;8.44;100.00
55301;BME280;58302;51.446;-2.000;2023-04-06T00:45:55;100580.34;;;8.44;100.00
55301;BME280;58302;51.446;-2.000;2023-04-06T00:48:21;100594.69;;;8.44;100.00
55301;BME280;58302;51.446;-2.000;2023-04-06T00:50:47;100585.28;;;8.47;100.00
55301;BME280;58302;51.446;-2.000;2023-04-06T00:53:13;100578.78;;;8.48;100.00
55301;BME280;58302;51.446;-2.000;2023-04-06T00:55:39;100581.50;;;8.48;100.00
55301;BME280;58302;51.446;-2.000;2023-04-06T00:58:05;100571.16;;;8.45;100.00
55301;BME280;58302;51.446;-2.000;2023-04-06T01:00:32;100575.25;;;8.48;100.00
55301;BME280;58302;51.446;-2.000;2023-04-06T01:02:58;100570.09;;;8.46;100.00
55301;BME280;58302;51.446;-2.000;2023-04-06T01:05:24;100558.75;;;8.49;100.00
55301;BME280;58302;51.446;-2.000;2023-04-06T01:07:50;100551.16;;;8.46;100.00
55301;BME280;58302;51.446;-2.000;2023-04-06T01:10:26;100549.47;;;8.45;100.00
55301;BME280;58302;51.446;-2.000;2023-04-06T01:12:53;100549.28;;;8.35;100.00
55301;BME280;58302;51.446;-2.000;2023-04-06T01:15:19;100555.22;;;8.32;100.00
55301;BME280;58302;51.446;-2.000;2023-04-06T01:17:46;100547.56;;;8.29;100.00
55301;BME280;58302;51.446;-2.000;2023-04-06T01:20:12;100548.47;;;8.34;100.00
55301;BME280;58302;51.446;-2.000;2023-04-06T01:22:38;100542.25;;;8.34;100.00
55301;BME280;58302;51.446;-2.000;2023-04-06T01:25:05;100546.94;;;8.38;100.00
55301;BME280;58302;51.446;-2.000;2023-04-06T01:27:31;100542.09;;;8.40;100.00
55301;BME280;58302;51.446;-2.000;2023-04-06T01:29:57;100547.28;;;8.42;100.00
55301;BME280;58302;51.446;-2.000;2023-04-06T01:32:23;100538.34;;;8.41;100.00
55301;BME280;58302;51.446;-2.000;2023-04-06T01:34:49;100536.75;;;8.45;100.00
55301;BME280;58302;51.446;-2.000;2023-04-06T01:37:15;100537.34;;;8.48;100.00
55301;BME280;58302;51.446;-2.000;2023-04-06T01:39:42;100529.78;;;8.50;100.00
55301;BME280;58302;51.446;-2.000;2023-04-06T01:42:09;100530.59;;;8.50;100.00
55301;BME280;58302;51.446;-2.000;2023-04-06T01:44:34;100519.75;;;8.50;100.00
55301;BME280;58302;51.446;-2.000;2023-04-06T01:47:01;100526.00;;;8.51;100.00
55301;BME280;58302;51.446;-2.000;2023-04-06T01:49:27;100514.94;;;8.52;100.00
55301;BME280;58302;51.446;-2.000;2023-04-06T01:51:52;100521.41;;;8.51;100.00
55301;BME280;58302;51.446;-2.000;2023-04-06T01:54:20;100520.34;;;8.52;100.00
55301;BME280;58302;51.446;-2.000;2023-04-06T01:56:46;100516.81;;;8.52;100.00
55301;BME280;58302;51.446;-2.000;2023-04-06T01:59:11;100512.97;;;8.48;100.00
55301;BME280;58302;51.446;-2.000;2023-04-06T02:01:37;100515.16;;;8.51;100.00
55301;BME280;58302;51.446;-2.000;2023-04-06T02:04:03;100512.72;;;8.49;100.00
55301;BME280;58302;51.446;-2.000;2023-04-06T02:06:29;100513.28;;;8.51;100.00
55301;BME280;58302;51.446;-2.000;2023-04-06T02:08:56;100512.72;;;8.49;100.00
55301;BME280;58302;51.446;-2.000;2023-04-06T02:11:22;100504.59;;;8.49;100.00
55301;BME280;58302;51.446;-2.000;2023-04-06T02:13:48;100500.81;;;8.50;100.00
55301;BME280;58302;51.446;-2.000;2023-04-06T02:16:14;100504.66;;;8.54;100.00
55301;BME280;58302;51.446;-2.000;2023-04-06T02:18:41;100501.13;;;8.54;100.00
55301;BME280;58302;51.446;-2.000;2023-04-06T02:21:07;100501.69;;;8.56;100.00
55301;BME280;58302;51.446;-2.000;2023-04-06T02:23:33;100495.47;;;8.55;100.00
55301;BME280;58302;51.446;-2.000;2023-04-06T02:25:59;100487.91;;;8.57;100.00
55301;BME280;58302;51.446;-2.000;2023-04-06T02:28:25;100487.06;;;8.57;100.00
55301;BME280;58302;51.446;-2.000;2023-04-06T02:30:51;100487.91;;;8.57;100.00
55301;BME280;58302;51.446;-2.000;2023-04-06T02:33:17;100485.78;;;8.59;100.00
55301;BME280;58302;51.446;-2.000;2023-04-06T02:35:44;100491.19;;;8.59;100.00
55301;BME280;58302;51.446;-2.000;2023-04-06T02:38:10;100491.19;;;8.59;100.00
55301;BME280;58302;51.446;-2.000;2023-04-06T02:40:36;100489.84;;;8.62;100.00
55301;BME280;58302;51.446;-2.000;2023-04-06T02:43:02;100490.09;;;8.60;100.00
55301;BME280;58302;51.446;-2.000;2023-04-06T02:45:28;100486.84;;;8.58;100.00
55301;BME280;58302;51.446;-2.000;2023-04-06T02:47:54;100480.91;;;8.61;100.00
55301;BME280;58302;51.446;-2.000;2023-04-06T02:50:20;100483.63;;;8.61;100.00
55301;BME280;58302;51.446;-2.000;2023-04-06T02:52:46;100478.19;;;8.61;100.00
55301;BME280;58302;51.446;-2.000;2023-04-06T02:55:12;100475.75;;;8.60;100.00
55301;BME280;58302;51.446;-2.000;2023-04-06T02:57:37;100479.81;;;8.62;100.00
55301;BME280;58302;51.446;-2.000;2023-04-06T03:00:04;100475.50;;;8.61;100.00
55301;BME280;58302;51.446;-2.000;2023-04-06T03:02:30;100476.06;;;8.63;100.00
55301;BME280;58302;51.446;-2.000;2023-04-06T03:04:56;100473.91;;;8.65;100.00
55301;BME280;58302;51.446;-2.000;2023-04-06T03:07:22;100472.59;;;8.68;100.00
55301;BME280;58302;51.446;-2.000;2023-04-06T03:09:48;100474.53;;;8.73;100.00
55301;BME280;58302;51.446;-2.000;2023-04-06T03:12:14;100465.91;;;8.76;100.00
55301;BME280;58302;51.446;-2.000;2023-04-06T03:14:40;100461.06;;;8.78;100.00
55301;BME280;58302;51.446;-2.000;2023-04-06T03:17:06;100462.13;;;8.77;100.00
55301;BME280;58302;51.446;-2.000;2023-04-06T03:19:32;100455.63;;;8.78;100.00
55301;BME280;58302;51.446;-2.000;2023-04-06T03:21:58;100445.06;;;8.76;100.00
55301;BME280;58302;51.446;-2.000;2023-04-06T03:24:24;100448.03;;;8.75;100.00
55301;BME280;58302;51.446;-2.000;2023-04-06T03:26:50;100432.84;;;8.74;100.00
55301;BME280;58302;51.446;-2.000;2023-04-06T03:29:16;100427.94;;;8.70;100.00
55301;BME280;58302;51.446;-2.000;2023-04-06T03:31:42;100406.94;;;8.61;100.00
55301;BME280;58302;51.446;-2.000;2023-04-06T03:34:08;100394.69;;;8.53;100.00
55301;BME280;58302;51.446;-2.000;2023-04-06T03:36:34;100396.00;;;8.51;100.00
55301;BME280;58302;51.446;-2.000;2023-04-06T03:39:00;100396.50;;;8.48;100.00
55301;BME280;58302;51.446;-2.000;2023-04-06T03:41:26;100387.75;;;8.40;100.00
55301;BME280;58302;51.446;-2.000;2023-04-06T03:43:52;100406.84;;;8.34;100.00
55301;BME280;58302;51.446;-2.000;2023-04-06T03:46:18;100381.88;;;8.27;100.00
55301;BME280;58302;51.446;-2.000;2023-04-06T03:48:47;100374.00;;;8.25;100.00
55301;BME280;58302;51.446;-2.000;2023-04-06T03:51:13;100381.31;;;8.25;100.00
55301;BME280;58302;51.446;-2.000;2023-04-06T03:53:39;100369.34;;;8.21;100.00
55301;BME280;58302;51.446;-2.000;2023-04-06T03:56:06;100373.34;;;8.18;100.00
55301;BME280;58302;51.446;-2.000;2023-04-06T03:58:32;100366.00;;;8.13;100.00
55301;BME280;58302;51.446;-2.000;2023-04-06T04:00:57;100343.22;;;8.09;100.00
55301;BME280;58302;51.446;-2.000;2023-04-06T04:03:23;100345.91;;;8.09;100.00
55301;BME280;58302;51.446;-2.000;2023-04-06T04:05:53;100348.81;;;8.03;100.00
55301;BME280;58302;51.446;-2.000;2023-04-06T04:08:19;100363.34;;;7.97;100.00
55301;BME280;58302;51.446;-2.000;2023-04-06T04:10:45;100372.28;;;7.97;100.00
55301;BME280;58302;51.446;-2.000;2023-04-06T04:13:11;100363.03;;;7.93;100.00
55301;BME280;58302;51.446;-2.000;2023-04-06T04:15:37;100364.84;;;7.87;100.00
55301;BME280;58302;51.446;-2.000;2023-04-06T04:18:03;100393.13;;;7.80;100.00
55301;BME280;58302;51.446;-2.000;2023-04-06T04:20:29;100389.38;;;7.81;100.00
55301;BME280;58302;51.446;-2.000;2023-04-06T04:22:55;100410.59;;;7.89;100.00
55301;BME280;58302;51.446;-2.000;2023-04-06T04:25:20;100407.13;;;7.93;100.00
55301;BME280;58302;51.446;-2.000;2023-04-06T04:27:46;100414.00;;;8.01;100.00
55301;BME280;58302;51.446;-2.000;2023-04-06T04:30:13;100413.78;;;8.03;100.00
55301;BME280;58302;51.446;-2.000;2023-04-06T04:32:38;100412.09;;;8.02;100.00
55301;BME280;58302;51.446;-2.000;2023-04-06T04:35:05;100415.69;;;8.07;100.00
55301;BME280;58302;51.446;-2.000;2023-04-06T04:37:31;100407.59;;;8.07;100.00
55301;BME280;58302;51.446;-2.000;2023-04-06T04:39:57;100413.66;;;8.14;100.00
55301;BME280;58302;51.446;-2.000;2023-04-06T04:42:23;100398.78;;;8.17;100.00
55301;BME280;58302;51.446;-2.000;2023-04-06T04:44:49;100388.78;;;8.17;100.00
55301;BME280;58302;51.446;-2.000;2023-04-06T04:47:15;100381.47;;;8.18;100.00
55301;BME280;58302;51.446;-2.000;2023-04-06T04:49:41;100382.28;;;8.18;100.00
55301;BME280;58302;51.446;-2.000;2023-04-06T04:52:07;100381.47;;;8.18;100.00
55301;BME280;58302;51.446;-2.000;2023-04-06T04:54:33;100368.44;;;8.15;100.00
55301;BME280;58302;51.446;-2.000;2023-04-06T04:56:58;100366.00;;;8.13;100.00
55301;BME280;58302;51.446;-2.000;2023-04-06T04:59:24;100374.69;;;8.15;100.00
55301;BME280;58302;51.446;-2.000;2023-04-06T05:01:50;100375.16;;;8.12;100.00
55301;BME280;58302;51.446;-2.000;2023-04-06T05:04:16;100366.50;;;8.10;100.00
55301;BME280;58302;51.446;-2.000;2023-04-06T05:06:42;100359.72;;;8.08;100.00
55301;BME280;58302;51.446;-2.000;2023-04-06T05:09:08;100373.81;;;8.10;100.00
55301;BME280;58302;51.446;-2.000;2023-04-06T05:11:34;100362.66;;;8.06;100.00
55301;BME280;58302;51.446;-2.000;2023-04-06T05:14:00;100347.75;;;8.04;100.00
55301;BME280;58302;51.446;-2.000;2023-04-06T05:16:26;100355.28;;;8.02;100.00
55301;BME280;58302;51.446;-2.000;2023-04-06T05:18:53;100349.03;;;8.01;100.00
55301;BME280;58302;51.446;-2.000;2023-04-06T05:21:19;100349.84;;;8.02;100.00
55301;BME280;58302;51.446;-2.000;2023-04-06T05:23:45;100355.03;;;8.03;100.00
55301;BME280;58302;51.446;-2.000;2023-04-06T05:26:11;100357.16;;;8.01;100.00
55301;BME280;58302;51.446;-2.000;2023-04-06T05:28:37;100359.06;;;8.01;100.00
55301;BME280;58302;51.446;-2.000;2023-04-06T05:31:03;100370.75;;;8.06;100.00
55301;BME280;58302;51.446;-2.000;2023-04-06T05:33:29;100360.19;;;8.05;100.00
55301;BME280;58302;51.446;-2.000;2023-04-06T05:35:55;100359.13;;;8.06;100.00
55301;BME280;58302;51.446;-2.000;2023-04-06T05:38:21;100358.38;;;8.10;100.00
55301;BME280;58302;51.446;-2.000;2023-04-06T05:40:47;100350.00;;;8.12;100.00
55301;BME280;58302;51.446;-2.000;2023-04-06T05:43:13;100354.09;;;8.14;100.00
55301;BME280;58302;51.446;-2.000;2023-04-06T05:45:39;100358.19;;;8.17;100.00
55301;BME280;58302;51.446;-2.000;2023-04-06T05:48:05;100359.31;;;8.21;100.00
55301;BME280;58302;51.446;-2.000;2023-04-06T05:50:31;100360.69;;;8.24;100.00
55301;BME280;58302;51.446;-2.000;2023-04-06T05:52:57;100355.88;;;8.26;100.00
55301;BME280;58302;51.446;-2.000;2023-04-06T05:55:23;100356.69;;;8.26;100.00
55301;BME280;58302;51.446;-2.000;2023-04-06T05:57:49;100359.72;;;8.30;100.00
55301;BME280;58302;51.446;-2.000;2023-04-06T06:00:15;100368.94;;;8.34;100.00
55301;BME280;58302;51.446;-2.000;2023-04-06T06:02:41;100371.44;;;8.35;100.00
55301;BME280;58302;51.446;-2.000;2023-04-06T06:05:08;100373.91;;;8.37;100.00
55301;BME280;58302;51.446;-2.000;2023-04-06T06:07:35;100375.84;;;8.41;100.00
55301;BME280;58302;51.446;-2.000;2023-04-06T06:10:01;100375.66;;;8.48;100.00
55301;BME280;58302;51.446;-2.000;2023-04-06T06:12:28;100381.41;;;8.52;100.00
55301;BME280;58302;51.446;-2.000;2023-04-06T06:14:54;100384.91;;;8.52;100.00
55301;BME280;58302;51.446;-2.000;2023-04-06T06:17:20;100381.69;;;8.55;100.00
55301;BME280;58302;51.446;-2.000;2023-04-06T06:19:47;100385.53;;;8.59;100.00
55301;BME280;58302;51.446;-2.000;2023-04-06T06:22:13;100385.81;;;8.58;100.00
55301;BME280;58302;51.446;-2.000;2023-04-06T06:24:39;100388.03;;;8.66;100.00
55301;BME280;58302;51.446;-2.000;2023-04-06T06:27:05;100369.06;;;8.66;100.00
55301;BME280;58302;51.446;-2.000;2023-04-06T06:29:31;100381.81;;;8.65;100.00
55301;BME280;58302;51.446;-2.000;2023-04-06T06:31:57;100375.06;;;8.68;100.00
55301;BME280;58302;51.446;-2.000;2023-04-06T06:34:23;100388.91;;;8.71;100.00
55301;BME280;58302;51.446;-2.000;2023-04-06T06:36:49;100381.59;;;8.72;100.00
55301;BME280;58302;51.446;-2.000;2023-04-06T06:39:15;100396.56;;;8.75;100.00
55301;BME280;58302;51.446;-2.000;2023-04-06T06:41:40;100392.22;;;8.74;100.00
55301;BME280;58302;51.446;-2.000;2023-04-06T06:44:07;100406.38;;;8.81;100.00
55301;BME280;58302;51.446;-2.000;2023-04-06T06:46:33;100407.03;;;8.93;100.00
55301;BME280;58302;51.446;-2.000;2023-04-06T06:48:58;100407.69;;;9.05;100.00
55301;BME280;58302;51.446;-2.000;2023-04-06T06:51:24;100399.00;;;9.03;100.00
55301;BME280;58302;51.446;-2.000;2023-04-06T06:53:50;100407.75;;;9.10;100.00
55301;BME280;58302;51.446;-2.000;2023-04-06T06:56:16;100411.91;;;9.18;100.00
55301;BME280;58302;51.446;-2.000;2023-04-06T06:58:42;100406.25;;;9.24;100.00
55301;BME280;58302;51.446;-2.000;2023-04-06T07:01:08;100411.16;;;9.28;100.00
55301;BME280;58302;51.446;-2.000;2023-04-06T07:03:34;100406.34;;;9.35;100.00
55301;BME280;58302;51.446;-2.000;2023-04-06T07:06:00;100405.41;;;9.51;100.00
55301;BME280;58302;51.446;-2.000;2023-04-06T07:08:26;100408.78;;;9.68;100.00
55301;BME280;58302;51.446;-2.000;2023-04-06T07:10:53;100413.50;;;9.83;100.00
55301;BME280;58302;51.446;-2.000;2023-04-06T07:13:21;100403.25;;;9.90;100.00
55301;BME280;58302;51.446;-2.000;2023-04-06T07:15:49;100406.75;;;9.86;100.00
55301;BME280;58302;51.446;-2.000;2023-04-06T07:18:16;100411.13;;;9.92;100.00
55301;BME280;58302;51.446;-2.000;2023-04-06T07:20:42;100398.41;;;9.97;100.00
55301;BME280;58302;51.446;-2.000;2023-04-06T07:23:09;100412.34;;;10.11;100.00
55301;BME280;58302;51.446;-2.000;2023-04-06T07:25:35;100404.22;;;10.21;100.00
55301;BME280;58302;51.446;-2.000;2023-04-06T07:28:02;100393.94;;;10.23;100.00
55301;BME280;58302;51.446;-2.000;2023-04-06T07:30:29;100387.97;;;10.26;100.00
55301;BME280;58302;51.446;-2.000;2023-04-06T07:32:55;100397.78;;;10.33;100.00
55301;BME280;58302;51.446;-2.000;2023-04-06T07:35:24;100386.72;;;10.44;100.00
55301;BME280;58302;51.446;-2.000;2023-04-06T07:37:52;100386.50;;;10.61;100.00
55301;BME280;58302;51.446;-2.000;2023-04-06T07:40:18;100389.25;;;10.66;100.00
55301;BME280;58302;51.446;-2.000;2023-04-06T07:42:45;100377.53;;;10.66;100.00
55301;BME280;58302;51.446;-2.000;2023-04-06T07:45:11;100393.31;;;10.69;100.00
55301;BME280;58302;51.446;-2.000;2023-04-06T07:47:38;100394.09;;;10.64;100.00
55301;BME280;58302;51.446;-2.000;2023-04-06T07:50:04;100391.13;;;10.61;100.00
55301;BME280;58302;51.446;-2.000;2023-04-06T07:52:30;100400.88;;;10.57;100.00
55301;BME280;58302;51.446;-2.000;2023-04-06T07:54:58;100398.69;;;10.53;100.00
55301;BME280;58302;51.446;-2.000;2023-04-06T07:57:25;100410.59;;;10.42;100.00
55301;BME280;58302;51.446;-2.000;2023-04-06T07:59:51;100407.34;;;10.40;100.00
55301;BME280;58302;51.446;-2.000;2023-04-06T08:02:17;100412.47;;;10.37;100.00
55301;BME280;58302;51.446;-2.000;2023-04-06T08:04:43;100410.88;;;10.41;100.00
55301;BME280;58302;51.446;-2.000;2023-04-06T08:07:10;100412.56;;;10.57;100.00
55301;BME280;58302;51.446;-2.000;2023-04-06T08:09:36;100413.38;;;10.58;100.00
55301;BME280;58302;51.446;-2.000;2023-04-06T08:12:02;100410.44;;;10.74;100.00
55301;BME280;58302;51.446;-2.000;2023-04-06T08:14:28;100413.75;;;10.87;100.00
55301;BME280;58302;51.446;-2.000;2023-04-06T08:16:54;100417.63;;;11.11;100.00
55301;BME280;58302;51.446;-2.000;2023-04-06T08:19:20;100415.47;;;11.44;100.00
55301;BME280;58302;51.446;-2.000;2023-04-06T08:21:46;100404.03;;;11.67;100.00
55301;BME280;58302;51.446;-2.000;2023-04-06T08:24:13;100399.69;;;11.61;100.00
55301;BME280;58302;51.446;-2.000;2023-04-06T08:26:39;100411.38;;;11.51;100.00
55301;BME280;58302;51.446;-2.000;2023-04-06T08:29:05;100414.91;;;11.77;100.00
55301;BME280;58302;51.446;-2.000;2023-04-06T08:31:35;100415.94;;;12.17;100.00
55301;BME280;58302;51.446;-2.000;2023-04-06T08:34:01;100401.31;;;12.68;100.00
55301;BME280;58302;51.446;-2.000;2023-04-06T08:36:27;100399.78;;;12.96;100.00
55301;BME280;58302;51.446;-2.000;2023-04-06T08:38:53;100403.25;;;13.51;100.00
55301;BME280;58302;51.446;-2.000;2023-04-06T08:41:20;100395.75;;;13.66;100.00
55301;BME280;58302;51.446;-2.000;2023-04-06T08:43:57;100394.38;;;13.69;100.00
55301;BME280;58302;51.446;-2.000;2023-04-06T08:46:25;100399.75;;;13.79;100.00
55301;BME280;58302;51.446;-2.000;2023-04-06T08:49:01;100389.78;;;13.88;100.00
55301;BME280;58302;51.446;-2.000;2023-04-06T08:51:28;100395.03;;;14.33;100.00
55301;BME280;58302;51.446;-2.000;2023-04-06T08:53:59;100405.56;;;13.96;100.00
55301;BME280;58302;51.446;-2.000;2023-04-06T08:56:27;100408.13;;;13.19;100.00
55301;BME280;58302;51.446;-2.000;2023-04-06T08:58:54;100413.28;;;13.26;100.00
55301;BME280;58302;51.446;-2.000;2023-04-06T09:01:25;100417.69;;;13.12;100.00
55301;BME280;58302;51.446;-2.000;2023-04-06T09:03:56;100409.03;;;13.44;100.00
55301;BME280;58302;51.446;-2.000;2023-04-06T09:06:23;100414.25;;;13.75;100.00
55301;BME280;58302;51.446;-2.000;2023-04-06T09:08:50;100413.56;;;13.88;100.00
55301;BME280;58302;51.446;-2.000;2023-04-06T09:11:15;100415.69;;;13.96;100.00
55301;BME280;58302;51.446;-2.000;2023-04-06T09:13:49;100415.16;;;14.47;100.00
55301;BME280;58302;51.446;-2.000;2023-04-06T09:16:15;100407.22;;;14.69;100.00
55301;BME280;58302;51.446;-2.000;2023-04-06T09:18:41;100419.16;;;14.55;100.00
55301;BME280;58302;51.446;-2.000;2023-04-06T09:21:08;100414.00;;;14.72;100.00
55301;BME280;58302;51.446;-2.000;2023-04-06T09:23:34;100414.84;;;14.72;100.00
55301;BME280;58302;51.446;-2.000;2023-04-06T09:26:12;100429.34;;;14.49;100.00
55301;BME280;58302;51.446;-2.000;2023-04-06T09:31:12;100420.06;;;14.45;100.00
55301;BME280;58302;51.446;-2.000;2023-04-06T09:33:41;100428.19;;;14.02;100.00
55301;BME280;58302;51.446;-2.000;2023-04-06T09:36:07;100432.41;;;13.89;100.00
55301;BME280;58302;51.446;-2.000;2023-04-06T09:38:50;100427.16;;;14.51;100.00
55301;BME280;58302;51.446;-2.000;2023-04-06T09:41:29;100418.47;;;15.24;100.00
55301;BME280;58302;51.446;-2.000;2023-04-06T09:44:10;100410.94;;;14.79;100.00
55301;BME280;58302;51.446;-2.000;2023-04-06T09:46:38;100426.03;;;15.14;100.00
55301;BME280;58302;51.446;-2.000;2023-04-06T09:49:06;100419.56;;;15.42;100.00
55301;BME280;58302;51.446;-2.000;2023-04-06T09:51:46;100423.84;;;16.27;100.00
55301;BME280;58302;51.446;-2.000;2023-04-06T09:54:18;100428.31;;;16.23;100.00
55301;BME280;58302;51.446;-2.000;2023-04-06T09:56:53;100430.66;;;15.32;100.00
55301;BME280;58302;51.446;-2.000;2023-04-06T09:59:38;100422.03;;;14.39;100.00
55301;BME280;58302;51.446;-2.000;2023-04-06T10:02:16;100421.91;;;13.73;100.00
55301;BME280;58302;51.446;-2.000;2023-04-06T10:04:50;100434.09;;;13.07;100.00
55301;BME280;58302;51.446;-2.000;2023-04-06T10:07:20;100445.38;;;12.90;100.00
55301;BME280;58302;51.446;-2.000;2023-04-06T10:09:46;100446.56;;;12.69;100.00
55301;BME280;58302;51.446;-2.000;2023-04-06T10:12:14;100437.59;;;12.63;100.00
55301;BME280;58302;51.446;-2.000;2023-04-06T10:14:42;100453.69;;;12.70;100.00
55301;BME280;58302;51.446;-2.000;2023-04-06T10:17:08;100446.28;;;12.75;100.00
55301;BME280;58302;51.446;-2.000;2023-04-06T10:19:53;100448.19;;;12.75;100.00
55301;BME280;58302;51.446;-2.000;2023-04-06T10:22:26;100455.00;;;12.77;100.00
55301;BME280;58302;51.446;-2.000;2023-04-06T10:24:55;100459.38;;;12.73;100.00
55301;BME280;58302;51.446;-2.000;2023-04-06T10:27:28;100463.69;;;12.79;100.00
55301;BME280;58302;51.446;-2.000;2023-04-06T10:30:03;100456.63;;;12.78;100.00
55301;BME280;58302;51.446;-2.000;2023-04-06T10:32:40;100462.09;;;12.73;100.00
55301;BME280;58302;51.446;-2.000;2023-04-06T10:35:10;100466.50;;;12.69;100.00
55301;BME280;58302;51.446;-2.000;2023-04-06T10:37:51;100461.56;;;12.76;100.00
55301;BME280;58302;51.446;-2.000;2023-04-06T10:40:28;100453.53;;;12.95;100.00
55301;BME280;58302;51.446;-2.000;2023-04-06T10:42:55;100455.31;;;13.20;100.00
55301;BME280;58302;51.446;-2.000;2023-04-06T10:45:22;100454.13;;;13.41;100.00
55301;BME280;58302;51.446;-2.000;2023-04-06T10:47:48;100449.09;;;13.54;100.00
55301;BME280;58302;51.446;-2.000;2023-04-06T10:50:15;100453.75;;;13.53;100.00
55301;BME280;58302;51.446;-2.000;2023-04-06T10:52:46;100451.31;;;13.52;100.00
55301;BME280;58302;51.446;-2.000;2023-04-06T10:55:13;100445.19;;;13.94;100.00
55301;BME280;58302;51.446;-2.000;2023-04-06T10:57:40;100449.66;;;14.14;100.00
55301;BME280;58302;51.446;-2.000;2023-04-06T11:00:07;100457.31;;;13.83;100.00
55301;BME280;58302;51.446;-2.000;2023-04-06T11:02:36;100447.00;;;13.80;100.00
55301;BME280;58302;51.446;-2.000;2023-04-06T11:05:04;100452.59;;;14.46;100.00
55301;BME280;58302;51.446;-2.000;2023-04-06T11:07:30;100442.72;;;15.50;100.00
55301;BME280;58302;51.446;-2.000;2023-04-06T11:09:56;100453.44;;;16.44;100.00
55301;BME280;58302;51.446;-2.000;2023-04-06T11:12:23;100441.03;;;17.24;100.00
55301;BME280;58302;51.446;-2.000;2023-04-06T11:14:58;100470.34;;;17.51;100.00
55301;BME280;58302;51.446;-2.000;2023-04-06T11:17:33;100472.25;;;17.28;100.00
55301;BME280;58302;51.446;-2.000;2023-04-06T11:19:59;100470.72;;;16.72;100.00
55301;BME280;58302;51.446;-2.000;2023-04-06T11:22:26;100473.44;;;16.45;100.00
55301;BME280;58302;51.446;-2.000;2023-04-06T11:24:52;100472.59;;;16.30;100.00
55301;BME280;58302;51.446;-2.000;2023-04-06T11:27:19;100475.59;;;16.01;100.00
55301;BME280;58302;51.446;-2.000;2023-04-06T11:29:46;100485.31;;;15.23;100.00
55301;BME280;58302;51.446;-2.000;2023-04-06T11:32:20;100479.97;;;14.70;100.00
55301;BME280;58302;51.446;-2.000;2023-04-06T11:34:46;100484.56;;;13.59;100.00
55301;BME280;58302;51.446;-2.000;2023-04-06T11:37:12;100497.31;;;12.70;100.00
55301;BME280;58302;51.446;-2.000;2023-04-06T11:39:50;100484.59;;;11.58;100.00
55301;BME280;58302;51.446;-2.000;2023-04-06T11:42:24;100504.56;;;10.91;100.00
55301;BME280;58302;51.446;-2.000;2023-04-06T11:44:53;100516.38;;;10.17;100.00
55301;BME280;58302;51.446;-2.000;2023-04-06T11:47:19;100526.63;;;9.77;100.00
55301;BME280;58302;51.446;-2.000;2023-04-06T11:49:47;100537.91;;;9.64;100.00
55301;BME280;58302;51.446;-2.000;2023-04-06T11:52:24;100543.44;;;9.74;100.00
55301;BME280;58302;51.446;-2.000;2023-04-06T11:54:52;100544.41;;;9.90;100.00
55301;BME280;58302;51.446;-2.000;2023-04-06T11:57:19;100549.25;;;10.20;100.00
55301;BME280;58302;51.446;-2.000;2023-04-06T11:59:46;100541.38;;;10.56;100.00
55301;BME280;58302;51.446;-2.000;2023-04-06T12:02:12;100545.94;;;11.03;100.00
55301;BME280;58302;51.446;-2.000;2023-04-06T12:04:38;100527.56;;;11.41;100.00
55301;BME280;58302;51.446;-2.000;2023-04-06T12:07:04;100523.00;;;11.77;100.00
55301;BME280;58302;51.446;-2.000;2023-04-06T12:09:30;100529.03;;;11.89;100.00
55301;BME280;58302;51.446;-2.000;2023-04-06T12:12:00;100521.66;;;11.84;100.00
55301;BME280;58302;51.446;-2.000;2023-04-06T12:14:26;100528.72;;;11.70;100.00
55301;BME280;58302;51.446;-2.000;2023-04-06T12:16:52;100530.59;;;11.44;100.00
55301;BME280;58302;51.446;-2.000;2023-04-06T12:19:18;100532.09;;;11.04;100.00
55301;BME280;58302;51.446;-2.000;2023-04-06T12:21:44;100553.00;;;10.46;100.00
55301;BME280;58302;51.446;-2.000;2023-04-06T12:24:10;100559.22;;;10.10;100.00
55301;BME280;58302;51.446;-2.000;2023-04-06T12:26:36;100584.09;;;9.69;100.00
55301;BME280;58302;51.446;-2.000;2023-04-06T12:29:02;100601.19;;;9.43;100.00
55301;BME280;58302;51.446;-2.000;2023-04-06T12:31:39;100604.78;;;9.27;100.00
55301;BME280;58302;51.446;-2.000;2023-04-06T12:34:06;100589.66;;;9.31;100.00
55301;BME280;58302;51.446;-2.000;2023-04-06T12:36:33;100593.75;;;9.60;100.00
55301;BME280;58302;51.446;-2.000;2023-04-06T12:39:00;100584.31;;;9.90;100.00